Time;durP1;ratioP1;P1;durP2;ratioP2;P2;SDS_P1;SDS_P2;PMS_P1;PMS_P2;Temp;Humidity;BMP_temperature;BMP_pressure;BME280_temperature;BME280_humidity;BME280_pressure;Samples;Min_cycle;Max_cycle;Signal;HPM_P1;HPM_P2
2022/01/18 00:01:39;;;;;;;45.40;11.68;;;-0.50;99.90;;;;;;5007168;28;20391;-86
2022/01/18 00:04:06;;;;;;;48.33;11.60;;;-0.50;99.90;;;;;;5007668;28;20406;-86
2022/01/18 00:06:33;;;;;;;51.17;11.20;;;-0.60;99.90;;;;;;5007948;28;20388;-83
2022/01/18 00:08:59;;;;;;;47.28;12.07;;;-0.60;99.90;;;;;;5009003;28;20893;-86
2022/01/18 00:11:28;;;;;;;45.93;11.57;;;-0.60;99.90;;;;;;5008762;28;20386;-84
2022/01/18 00:14:07;;;;;;;47.50;12.33;;;-0.40;99.90;;;;;;5010674;28;20486;-84
2022/01/18 00:16:59;;;;;;;38.45;11.32;;;-0.60;99.90;;;;;;5025453;28;20485;-85
2022/01/18 00:19:24;;;;;;;41.80;11.00;;;-0.70;99.90;;;;;;5006393;28;20446;-84
2022/01/18 00:24:31;;;;;;;45.50;11.73;;;-0.60;99.90;;;;;;5006780;28;20411;-85
2022/01/18 00:26:57;;;;;;;37.78;10.23;;;-0.50;99.90;;;;;;5005213;28;20444;-84
2022/01/18 00:29:24;;;;;;;36.58;10.32;;;-0.60;99.90;;;;;;5019451;28;20394;-84
2022/01/18 00:32:12;;;;;;;49.90;12.18;;;-0.50;99.90;;;;;;5004487;28;20395;-86
2022/01/18 00:34:40;;;;;;;47.22;11.20;;;-0.60;99.90;;;;;;5012623;28;20474;-86
2022/01/18 00:39:40;;;;;;;50.03;11.25;;;-0.50;99.90;;;;;;5024397;28;20406;-84
2022/01/18 00:42:07;;;;;;;43.03;11.45;;;-0.60;99.90;;;;;;5014623;28;20400;-84
2022/01/18 00:44:32;;;;;;;46.58;11.68;;;-0.50;99.90;;;;;;5013108;28;20547;-83
2022/01/18 00:46:58;;;;;;;46.95;11.63;;;-0.50;99.90;;;;;;5012603;28;20968;-84
2022/01/18 00:49:24;;;;;;;52.00;12.25;;;-0.50;99.90;;;;;;5015631;28;20387;-84
2022/01/18 00:51:55;;;;;;;41.63;11.13;;;-0.50;99.90;;;;;;5011168;28;20415;-84
2022/01/18 00:54:24;;;;;;;46.95;12.05;;;-0.50;99.90;;;;;;5012497;28;20918;-85
2022/01/18 00:56:52;;;;;;;52.58;12.25;;;-0.50;99.90;;;;;;5014851;28;20437;-86
2022/01/18 00:59:19;;;;;;;51.92;12.45;;;-0.50;99.90;;;;;;5012032;28;20401;-84
2022/01/18 01:01:44;;;;;;;45.10;11.27;;;-0.50;99.90;;;;;;5004689;28;20396;-84
2022/01/18 01:04:10;;;;;;;46.15;11.65;;;-0.40;99.90;;;;;;5007116;28;20423;-84
2022/01/18 01:06:37;;;;;;;46.40;10.93;;;-0.20;99.90;;;;;;5005022;28;20392;-84
2022/01/18 01:09:03;;;;;;;51.70;12.13;;;-0.50;99.90;;;;;;5005946;28;20395;-86
2022/01/18 01:11:29;;;;;;;53.42;13.32;;;-0.50;99.90;;;;;;5012768;28;20405;-84
2022/01/18 01:14:00;;;;;;;45.67;12.00;;;-0.50;99.90;;;;;;5005972;28;20854;-84
2022/01/18 01:36:33;;;;;;;50.88;12.80;;;-0.70;99.90;;;;;;5014372;28;20910;-83
2022/01/18 01:44:46;;;;;;;50.33;13.55;;;-0.50;99.90;;;;;;4963346;28;20474;-84
2022/01/18 01:47:17;;;;;;;52.67;12.35;;;-0.70;99.90;;;;;;4990110;28;20463;-84
2022/01/18 01:49:43;;;;;;;54.33;12.65;;;-0.60;99.90;;;;;;5012445;28;20398;-84
2022/01/18 01:52:10;;;;;;;46.70;11.63;;;-0.60;99.90;;;;;;5010289;28;20479;-84
2022/01/18 01:54:38;;;;;;;50.15;11.30;;;-0.60;99.90;;;;;;5020282;28;20484;-84
2022/01/18 01:57:05;;;;;;;51.60;12.47;;;-0.60;99.90;;;;;;5011584;28;20504;-84
2022/01/18 01:59:31;;;;;;;49.00;12.07;;;-0.60;99.90;;;;;;5015907;28;20395;-85
2022/01/18 02:01:57;;;;;;;49.73;12.37;;;-0.70;99.90;;;;;;5021279;28;20401;-85
2022/01/18 02:04:24;;;;;;;52.43;13.03;;;-0.60;99.90;;;;;;5016671;28;20459;-83
2022/01/18 02:06:50;;;;;;;40.58;10.70;;;-0.70;99.90;;;;;;5009282;28;20391;-84
2022/01/18 02:09:18;;;;;;;53.22;12.98;;;-0.70;99.90;;;;;;5013774;28;20480;-85
2022/01/18 02:11:46;;;;;;;45.90;11.63;;;-0.70;99.90;;;;;;5014323;28;20415;-84
2022/01/18 02:14:16;;;;;;;48.08;12.15;;;-0.70;99.90;;;;;;5010105;28;20405;-85
2022/01/18 02:22:12;;;;;;;51.45;11.73;;;-0.80;99.90;;;;;;5008785;28;20438;-84
2022/01/18 02:24:37;;;;;;;51.20;12.30;;;-0.90;99.90;;;;;;5012047;28;20523;-83
2022/01/18 02:27:03;;;;;;;53.27;13.77;;;-0.90;99.90;;;;;;5010835;28;20429;-84
2022/01/18 02:29:29;;;;;;;52.87;14.67;;;-0.90;99.90;;;;;;5014437;28;20395;-83
2022/01/18 02:31:56;;;;;;;52.57;14.23;;;-1.00;99.90;;;;;;5012509;28;20894;-85
2022/01/18 02:34:23;;;;;;;52.53;13.68;;;-0.80;99.90;;;;;;5021358;28;20440;-84
2022/01/18 02:36:53;;;;;;;53.55;13.40;;;-0.80;99.90;;;;;;5008930;28;20866;-85
2022/01/18 02:39:39;;;;;;;55.17;12.93;;;-0.90;99.90;;;;;;5010709;28;20380;-84
2022/01/18 02:42:07;;;;;;;61.65;13.10;;;-0.90;99.90;;;;;;5006782;28;20404;-85
2022/01/18 02:44:34;;;;;;;54.75;12.70;;;-0.90;99.90;;;;;;5014171;28;20864;-85
2022/01/18 02:47:01;;;;;;;48.97;11.40;;;-0.50;99.90;;;;;;5018195;28;20409;-84
2022/01/18 02:49:28;;;;;;;46.38;11.88;;;-1.00;99.90;;;;;;5009345;28;20436;-84
2022/01/18 02:51:57;;;;;;;52.88;12.00;;;-1.00;99.90;;;;;;5012035;28;20399;-85
2022/01/18 02:54:22;;;;;;;37.72;10.10;;;-0.90;99.90;;;;;;5011878;28;20547;-83
2022/01/18 02:56:56;;;;;;;45.67;10.63;;;-1.00;99.90;;;;;;5012923;28;20971;-85
2022/01/18 03:00:18;;;;;;;43.73;11.17;;;-1.00;99.90;;;;;;5020263;28;20533;-84
2022/01/18 03:05:12;;;;;;;48.72;12.18;;;-1.00;99.90;;;;;;5008759;28;20402;-84
2022/01/18 03:07:38;;;;;;;43.67;10.68;;;-1.00;99.90;;;;;;5000983;28;20844;-84
2022/01/18 03:10:06;;;;;;;40.93;10.83;;;-1.00;99.90;;;;;;5011432;28;20471;-84
2022/01/18 03:12:32;;;;;;;42.78;9.82;;;-1.00;99.90;;;;;;5006199;28;20881;-84
2022/01/18 03:14:57;;;;;;;45.33;10.65;;;-1.00;99.90;;;;;;5017851;28;20388;-84
2022/01/18 03:17:23;;;;;;;47.90;11.50;;;-1.10;99.90;;;;;;5008012;28;20394;-84
2022/01/18 03:19:49;;;;;;;49.63;11.00;;;-1.10;99.90;;;;;;5014165;28;20379;-84
2022/01/18 03:22:15;;;;;;;34.15;9.38;;;-1.10;99.90;;;;;;5024968;28;20414;-84
2022/01/18 03:25:02;;;;;;;45.63;10.73;;;-1.10;99.90;;;;;;5017907;28;20956;-85
2022/01/18 03:30:13;;;;;;;43.45;10.63;;;-1.20;99.90;;;;;;5012067;28;20983;-85
2022/01/18 03:32:38;;;;;;;38.85;9.73;;;-1.20;99.90;;;;;;5012248;28;20403;-85
2022/01/18 03:35:07;;;;;;;40.53;10.95;;;-1.20;99.90;;;;;;5009100;28;20383;-84
2022/01/18 03:37:32;;;;;;;40.42;10.75;;;-1.30;99.90;;;;;;5015390;28;20389;-84
2022/01/18 03:39:58;;;;;;;33.42;9.75;;;-1.30;99.90;;;;;;5021260;28;20752;-85
2022/01/18 03:45:02;;;;;;;38.50;9.93;;;-1.20;99.90;;;;;;5011637;28;20477;-85
2022/01/18 03:47:29;;;;;;;38.03;9.80;;;-1.10;99.90;;;;;;5011519;28;20395;-85
2022/01/18 03:49:55;;;;;;;39.72;10.68;;;-1.00;99.90;;;;;;5012906;28;20395;-84
2022/01/18 03:52:20;;;;;;;32.33;9.55;;;-1.00;99.90;;;;;;5007343;28;20765;-84
2022/01/18 03:54:47;;;;;;;38.65;10.23;;;-1.00;99.90;;;;;;5012420;28;20977;-85
2022/01/18 03:57:14;;;;;;;35.45;9.70;;;-0.90;99.90;;;;;;5017478;28;20773;-85
2022/01/18 03:59:40;;;;;;;35.97;10.23;;;-1.10;99.90;;;;;;5016086;28;20406;-85
2022/01/18 04:02:07;;;;;;;31.73;9.57;;;-0.90;99.90;;;;;;5010544;28;20405;-85
2022/01/18 04:04:34;;;;;;;35.42;9.40;;;-0.90;99.90;;;;;;5011779;28;20492;-82
2022/01/18 04:07:00;;;;;;;40.05;10.95;;;-1.00;99.90;;;;;;5013822;28;20395;-83
2022/01/18 04:09:25;;;;;;;35.45;9.65;;;-1.00;99.90;;;;;;5015422;28;20486;-84
2022/01/18 04:11:52;;;;;;;36.08;10.02;;;-1.00;99.90;;;;;;5006301;28;20478;-85
2022/01/18 04:14:18;;;;;;;35.55;9.82;;;-0.90;99.90;;;;;;5007492;28;20410;-85
2022/01/18 04:16:58;;;;;;;44.43;11.23;;;-1.00;99.90;;;;;;5012224;28;20460;-86
2022/01/18 04:27:25;;;;;;;33.70;9.50;;;-1.30;99.90;;;;;;5023088;28;20438;-85
2022/01/18 04:29:50;;;;;;;37.42;9.73;;;-1.20;99.90;;;;;;5013614;28;20494;-84
2022/01/18 04:32:16;;;;;;;36.33;9.35;;;-1.30;99.90;;;;;;5010572;28;20388;-85
2022/01/18 04:34:42;;;;;;;41.92;10.18;;;-1.30;99.90;;;;;;5008553;28;20437;-84
2022/01/18 04:37:07;;;;;;;38.75;9.40;;;-1.30;99.90;;;;;;5022176;28;20462;-84
2022/01/18 04:39:37;;;;;;;38.97;9.88;;;-1.40;99.90;;;;;;5015269;28;20403;-84
2022/01/18 04:42:11;;;;;;;34.35;9.23;;;-1.50;99.90;;;;;;5009052;28;21034;-85
2022/01/18 04:49:51;;;;;;;42.05;10.95;;;-1.30;99.90;;;;;;5012595;28;20392;-84
2022/01/18 04:52:17;;;;;;;37.45;9.43;;;-1.40;99.90;;;;;;5018089;28;20386;-84
2022/01/18 04:54:45;;;;;;;32.25;9.32;;;-1.40;99.90;;;;;;5017482;28;20387;-85
2022/01/18 04:59:37;;;;;;;42.28;10.07;;;-1.50;99.90;;;;;;5008783;28;20397;-84
2022/01/18 05:02:03;;;;;;;37.90;9.40;;;-1.70;99.90;;;;;;5017010;28;20439;-85
2022/01/18 05:04:29;;;;;;;39.95;10.45;;;-1.50;99.90;;;;;;5013704;28;20872;-85
2022/01/18 05:07:00;;;;;;;31.17;9.17;;;-1.50;99.90;;;;;;5012025;28;20471;-85
2022/01/18 05:09:25;;;;;;;27.08;8.98;;;-1.30;99.90;;;;;;5014474;28;20406;-85
2022/01/18 05:12:00;;;;;;;36.53;9.73;;;-1.60;99.90;;;;;;5013192;28;20801;-85
2022/01/18 05:14:34;;;;;;;34.78;9.50;;;-1.50;99.90;;;;;;5015132;28;20865;-85
2022/01/18 05:20:36;;;;;;;28.65;8.88;;;-1.50;99.90;;;;;;5013376;28;20402;-85
2022/01/18 05:25:00;;;;;;;25.63;8.60;;;-1.30;99.90;;;;;;5021726;28;20425;-84
2022/01/18 05:27:26;;;;;;;35.78;9.55;;;-1.20;99.90;;;;;;5008144;28;20543;-84
2022/01/18 05:29:51;;;;;;;27.13;8.47;;;-1.00;99.90;;;;;;5011827;28;20401;-85
2022/01/18 05:32:17;;;;;;;29.80;8.70;;;-0.90;99.90;;;;;;5010594;28;20453;-85
2022/01/18 05:34:45;;;;;;;38.70;9.20;;;-0.70;99.90;;;;;;5020515;28;20972;-85
2022/01/18 05:37:11;;;;;;;39.10;9.48;;;-0.70;99.90;;;;;;5011552;28;20390;-85
2022/01/18 05:39:37;;;;;;;31.92;9.20;;;-0.60;99.90;;;;;;5014959;28;20985;-85
2022/01/18 05:42:03;;;;;;;29.60;8.20;;;-0.50;99.90;;;;;;5014676;28;20482;-86
2022/01/18 05:44:28;;;;;;;40.40;9.73;;;-0.40;99.90;;;;;;5008932;28;20441;-85
2022/01/18 05:46:54;;;;;;;29.90;8.67;;;-0.30;99.90;;;;;;5015934;28;20774;-85
2022/01/18 05:49:20;;;;;;;31.83;9.35;;;-0.10;99.90;;;;;;5016097;28;20498;-85
2022/01/18 05:51:47;;;;;;;27.15;8.63;;;-0.10;99.90;;;;;;5010998;28;20444;-84
2022/01/18 05:54:13;;;;;;;32.33;9.07;;;-0.10;99.90;;;;;;5012795;28;20391;-85
2022/01/18 05:56:38;;;;;;;39.53;9.73;;;0.10;99.90;;;;;;5014050;28;20398;-85
2022/01/18 05:59:06;;;;;;;27.33;8.93;;;0.20;99.90;;;;;;5011545;28;20403;-85
2022/01/18 06:01:34;;;;;;;27.02;7.90;;;0.20;99.90;;;;;;5011153;28;20402;-85
2022/01/18 06:09:12;;;;;;;25.10;7.35;;;0.40;99.90;;;;;;5027710;28;20481;-85
2022/01/18 06:11:38;;;;;;;39.33;9.90;;;0.50;99.90;;;;;;5025840;28;20409;-85
2022/01/18 06:14:04;;;;;;;32.53;8.90;;;0.50;99.90;;;;;;5027492;28;20444;-84
2022/01/18 06:16:30;;;;;;;33.05;8.93;;;0.50;99.90;;;;;;5025918;28;20818;-86
2022/01/18 06:18:56;;;;;;;34.77;8.87;;;0.50;99.90;;;;;;5009056;28;20475;-85
2022/01/18 06:21:22;;;;;;;26.27;8.00;;;0.50;99.90;;;;;;5009958;28;20382;-85
2022/01/18 06:23:48;;;;;;;22.20;7.80;;;0.60;99.90;;;;;;5008496;28;20966;-85
2022/01/18 06:26:16;;;;;;;29.03;9.00;;;0.50;99.90;;;;;;5007842;28;20424;-84
2022/01/18 06:28:45;;;;;;;24.23;7.32;;;0.70;99.90;;;;;;5011996;28;20418;-85
2022/01/18 06:31:13;;;;;;;33.00;9.83;;;0.70;99.90;;;;;;5011839;28;20410;-85
2022/01/18 06:33:40;;;;;;;27.23;7.78;;;0.70;99.90;;;;;;5013024;28;20971;-85
2022/01/18 06:36:06;;;;;;;28.52;7.88;;;0.80;99.90;;;;;;5026794;28;20382;-85
2022/01/18 06:38:31;;;;;;;27.98;8.43;;;0.80;99.90;;;;;;5025445;28;20386;-85
2022/01/18 06:40:57;;;;;;;31.88;8.77;;;0.80;99.90;;;;;;5021183;28;20445;-86
2022/01/18 06:43:23;;;;;;;26.63;8.90;;;1.10;99.90;;;;;;5006372;28;20415;-85
2022/01/18 06:45:48;;;;;;;30.80;9.10;;;0.90;99.90;;;;;;5023787;28;20748;-85
2022/01/18 06:48:14;;;;;;;37.20;10.17;;;0.90;99.90;;;;;;5026824;28;20390;-85
2022/01/18 06:50:40;;;;;;;31.48;9.05;;;0.90;99.90;;;;;;5025731;28;20378;-84
2022/01/18 06:53:05;;;;;;;33.67;9.13;;;0.90;99.90;;;;;;5009208;28;20409;-85
2022/01/18 06:55:31;;;;;;;25.17;8.88;;;1.00;99.90;;;;;;5006532;28;20383;-85
2022/01/18 06:57:57;;;;;;;32.22;9.18;;;1.10;99.90;;;;;;5006474;28;20435;-85
2022/01/18 07:00:23;;;;;;;31.25;7.80;;;1.00;99.90;;;;;;5006808;28;20731;-85
2022/01/18 07:02:48;;;;;;;30.67;8.05;;;1.10;99.90;;;;;;5009103;28;20857;-85
2022/01/18 07:05:14;;;;;;;31.55;7.75;;;1.20;99.90;;;;;;5027204;28;20426;-85
2022/01/18 07:07:41;;;;;;;28.10;7.82;;;1.30;99.90;;;;;;5025578;28;20370;-85
2022/01/18 07:10:08;;;;;;;26.95;7.22;;;1.40;99.90;;;;;;5026976;28;20385;-85
2022/01/18 07:12:35;;;;;;;33.72;7.65;;;1.50;99.90;;;;;;5025400;28;20393;-84
2022/01/18 07:15:06;;;;;;;26.95;6.80;;;1.50;99.90;;;;;;5024990;28;20402;-85
2022/01/18 07:17:33;;;;;;;29.33;7.60;;;1.70;99.90;;;;;;5021230;28;20387;-85
2022/01/18 07:19:59;;;;;;;30.15;7.45;;;1.70;99.90;;;;;;5025371;28;20475;-84
2022/01/18 07:22:24;;;;;;;29.63;7.50;;;1.70;99.90;;;;;;5025502;28;20394;-84
2022/01/18 07:24:55;;;;;;;28.83;7.32;;;1.80;99.90;;;;;;5011232;28;20382;-84
2022/01/18 07:27:21;;;;;;;30.55;7.90;;;1.80;99.90;;;;;;5009291;28;20406;-85
2022/01/18 07:29:47;;;;;;;26.30;7.30;;;2.00;99.90;;;;;;5025153;28;20394;-85
2022/01/18 07:32:12;;;;;;;28.57;7.73;;;2.00;99.90;;;;;;5025859;28;20543;-84
2022/01/18 07:34:46;;;;;;;27.13;8.03;;;2.00;99.90;;;;;;5026580;28;20713;-86
2022/01/18 07:37:12;;;;;;;25.70;7.37;;;1.90;99.90;;;;;;5025236;28;20402;-84
2022/01/18 07:39:37;;;;;;;26.97;7.30;;;2.00;99.90;;;;;;5026315;28;20394;-86
2022/01/18 07:42:03;;;;;;;22.43;6.90;;;2.30;99.90;;;;;;5026379;28;20393;-87
2022/01/18 07:44:30;;;;;;;27.07;7.90;;;2.10;99.90;;;;;;5015584;28;20527;-84
2022/01/18 07:46:55;;;;;;;34.90;9.82;;;2.40;99.90;;;;;;5007431;28;20395;-85
2022/01/18 07:49:21;;;;;;;31.73;8.63;;;2.20;99.90;;;;;;5010269;28;20389;-84
2022/01/18 07:51:46;;;;;;;27.87;8.63;;;2.20;99.90;;;;;;5024825;28;20382;-84
2022/01/18 07:54:12;;;;;;;26.77;7.27;;;2.20;99.90;;;;;;5024744;28;20390;-86
2022/01/18 07:56:41;;;;;;;29.80;7.97;;;2.20;99.90;;;;;;5023947;28;20418;-84
2022/01/18 07:59:07;;;;;;;25.42;7.32;;;2.20;99.90;;;;;;5012276;28;20409;-83
2022/01/18 08:01:33;;;;;;;19.85;5.47;;;2.30;99.90;;;;;;5011764;28;20379;-84
2022/01/18 08:03:58;;;;;;;22.03;6.60;;;2.40;99.90;;;;;;5006752;28;21037;-85
2022/01/18 08:06:24;;;;;;;25.52;6.22;;;2.40;99.90;;;;;;5010637;28;20402;-85
2022/01/18 08:08:49;;;;;;;28.63;6.88;;;2.50;99.90;;;;;;5010334;28;20502;-85
2022/01/18 08:11:16;;;;;;;25.80;7.10;;;2.90;99.90;;;;;;5011489;28;20406;-87
2022/01/18 08:13:44;;;;;;;19.45;6.05;;;2.60;99.90;;;;;;5007542;28;20384;-86
2022/01/18 08:16:22;;;;;;;21.80;6.68;;;2.70;99.90;;;;;;5019138;28;20397;-85
2022/01/18 08:18:50;;;;;;;23.10;5.80;;;2.70;99.90;;;;;;5024430;28;20381;-86
2022/01/18 08:21:16;;;;;;;27.77;6.57;;;2.70;99.90;;;;;;5011105;28;20410;-85
2022/01/18 08:23:42;;;;;;;18.20;5.20;;;2.70;99.90;;;;;;5007025;28;20407;-86
2022/01/18 08:26:08;;;;;;;23.52;6.35;;;2.70;99.90;;;;;;5015154;28;21654;-86
2022/01/18 08:28:34;;;;;;;18.07;5.47;;;2.90;99.90;;;;;;5021545;28;20836;-86
2022/01/18 08:31:00;;;;;;;19.70;5.93;;;3.00;99.90;;;;;;5006386;28;20397;-85
2022/01/18 08:33:27;;;;;;;16.57;5.37;;;3.00;99.90;;;;;;5010677;28;20395;-85
2022/01/18 08:35:53;;;;;;;15.82;5.05;;;3.20;99.90;;;;;;5011872;28;20494;-85
2022/01/18 08:38:18;;;;;;;17.13;6.10;;;3.20;99.90;;;;;;5013296;28;20499;-86
2022/01/18 08:40:44;;;;;;;16.38;5.63;;;3.20;99.90;;;;;;5004286;28;20374;-85
2022/01/18 08:43:10;;;;;;;15.20;5.38;;;3.30;99.90;;;;;;5010362;28;20764;-86
2022/01/18 08:45:35;;;;;;;25.10;6.00;;;3.30;99.90;;;;;;5012081;28;20411;-85
2022/01/18 08:48:02;;;;;;;16.35;5.15;;;3.30;99.90;;;;;;5023130;28;20480;-85
2022/01/18 08:50:28;;;;;;;19.90;5.72;;;3.30;99.90;;;;;;5013633;28;20404;-87
2022/01/18 08:52:53;;;;;;;23.17;6.07;;;3.50;99.90;;;;;;5016407;28;20486;-85
2022/01/18 08:55:20;;;;;;;16.83;5.60;;;3.50;99.90;;;;;;5008660;28;20479;-85
2022/01/18 08:57:49;;;;;;;19.90;5.78;;;3.90;99.90;;;;;;5006010;28;20814;-85
2022/01/18 09:00:16;;;;;;;22.27;6.03;;;3.60;99.90;;;;;;5010555;28;20401;-85
2022/01/18 09:02:42;;;;;;;19.35;7.03;;;3.80;99.90;;;;;;5017637;28;20428;-86
2022/01/18 09:05:08;;;;;;;23.45;7.97;;;3.70;99.90;;;;;;5015246;28;20493;-86
2022/01/18 09:07:37;;;;;;;22.00;6.97;;;3.90;99.90;;;;;;5018182;28;20382;-85
2022/01/18 09:10:07;;;;;;;19.13;5.72;;;3.90;99.90;;;;;;5019410;28;20469;-85
2022/01/18 09:12:34;;;;;;;21.70;6.32;;;4.10;99.90;;;;;;5012425;28;20379;-84
2022/01/18 09:15:01;;;;;;;19.02;5.55;;;4.50;99.90;;;;;;5023139;28;20416;-84
2022/01/18 09:17:28;;;;;;;15.95;5.32;;;4.20;99.90;;;;;;5025039;28;20822;-84
2022/01/18 09:19:55;;;;;;;19.95;5.78;;;4.30;99.90;;;;;;5023331;28;20444;-85
2022/01/18 09:22:20;;;;;;;18.48;5.47;;;4.30;99.90;;;;;;5018269;28;20400;-83
2022/01/18 09:24:46;;;;;;;19.63;5.50;;;4.40;99.90;;;;;;5005270;28;20396;-85
2022/01/18 09:27:12;;;;;;;15.63;5.10;;;4.40;99.90;;;;;;5006336;28;20476;-84
2022/01/18 09:29:39;;;;;;;17.80;5.27;;;4.50;99.90;;;;;;5009411;28;20414;-85
2022/01/18 09:32:06;;;;;;;22.03;5.83;;;4.50;99.90;;;;;;5005619;28;20491;-85
2022/01/18 09:34:32;;;;;;;19.95;6.22;;;4.60;99.90;;;;;;5007554;28;20387;-84
2022/01/18 09:36:58;;;;;;;17.25;6.05;;;4.60;99.90;;;;;;5016833;28;20393;-84
2022/01/18 09:39:25;;;;;;;19.63;5.53;;;4.70;99.90;;;;;;5009806;28;20383;-84
2022/01/18 09:41:53;;;;;;;20.08;9.48;;;4.80;99.90;;;;;;5016646;28;20382;-84
2022/01/18 09:44:19;;;;;;;18.47;5.93;;;4.90;99.90;;;;;;5024280;28;20478;-83
2022/01/18 09:46:48;;;;;;;20.00;5.65;;;5.00;99.90;;;;;;5013230;28;20846;-84
2022/01/18 09:49:14;;;;;;;17.90;4.95;;;5.40;99.90;;;;;;5014603;28;20463;-83
2022/01/18 09:51:40;;;;;;;17.88;4.88;;;5.40;99.90;;;;;;5005793;28;20383;-83
2022/01/18 09:54:06;;;;;;;18.25;5.85;;;5.60;99.90;;;;;;5005928;28;20447;-84
2022/01/18 09:56:31;;;;;;;17.07;5.43;;;5.50;99.90;;;;;;5007855;28;20956;-83
2022/01/18 09:58:57;;;;;;;16.87;5.07;;;5.50;99.90;;;;;;5009892;28;20390;-84
2022/01/18 10:01:23;;;;;;;14.05;4.53;;;5.50;99.90;;;;;;5018138;28;20437;-83
2022/01/18 10:03:49;;;;;;;13.98;4.80;;;5.40;99.90;;;;;;5027083;28;20895;-84
2022/01/18 10:06:18;;;;;;;19.38;5.32;;;5.50;99.90;;;;;;5025597;28;20467;-83
2022/01/18 10:08:48;;;;;;;17.50;5.00;;;5.70;99.90;;;;;;5017461;28;20419;-84
2022/01/18 10:11:17;;;;;;;17.13;5.13;;;5.80;99.90;;;;;;5008258;28;20444;-83
2022/01/18 10:13:49;;;;;;;15.23;5.07;;;5.90;99.90;;;;;;5008278;28;20379;-84
2022/01/18 10:16:22;;;;;;;18.23;4.88;;;6.00;99.90;;;;;;5006650;28;20816;-83
2022/01/18 10:18:48;;;;;;;18.85;4.93;;;5.80;99.90;;;;;;5013775;28;20382;-84
2022/01/18 10:21:39;;;;;;;16.67;5.00;;;5.60;99.90;;;;;;5027599;28;20805;-84
2022/01/18 10:24:17;;;;;;;16.65;5.10;;;5.70;99.90;;;;;;5022093;28;20911;-83
2022/01/18 10:26:45;;;;;;;14.68;5.07;;;5.70;99.90;;;;;;5027569;28;20381;-83
2022/01/18 10:29:12;;;;;;;19.42;5.57;;;5.80;99.90;;;;;;5027273;28;20462;-83
2022/01/18 10:37:03;;;;;;;14.32;4.20;;;6.10;99.90;;;;;;5027649;28;20378;-84
2022/01/18 10:39:59;;;;;;;12.57;4.20;;;6.10;99.90;;;;;;5025498;28;20935;-83
2022/01/18 10:42:42;;;;;;;12.23;3.90;;;6.10;99.90;;;;;;5033840;28;20395;-83
2022/01/18 10:45:33;;;;;;;15.65;4.18;;;6.20;99.90;;;;;;5021532;28;20398;-82
2022/01/18 10:48:04;;;;;;;16.58;4.00;;;6.20;99.90;;;;;;5019272;28;20426;-82
2022/01/18 10:50:36;;;;;;;9.20;3.30;;;6.20;99.90;;;;;;5012627;28;20402;-83
2022/01/18 10:53:19;;;;;;;11.27;3.38;;;6.10;99.90;;;;;;5007329;28;20436;-84
2022/01/18 10:55:46;;;;;;;11.38;3.45;;;6.00;99.90;;;;;;5019871;28;20398;-83
2022/01/18 10:58:20;;;;;;;12.20;3.72;;;6.10;99.90;;;;;;5013999;28;20444;-83
2022/01/18 11:00:45;;;;;;;16.33;3.83;;;6.30;99.90;;;;;;5017424;28;20401;-84
2022/01/18 11:03:12;;;;;;;10.30;3.42;;;6.20;99.90;;;;;;5023407;28;20406;-84
2022/01/18 11:05:40;;;;;;;12.02;3.65;;;6.20;99.90;;;;;;5021806;28;20388;-83
2022/01/18 11:08:06;;;;;;;11.23;3.80;;;6.50;99.90;;;;;;5021513;28;20832;-83
2022/01/18 11:10:40;;;;;;;13.13;3.88;;;6.20;99.90;;;;;;5023373;28;20933;-83
2022/01/18 11:13:11;;;;;;;18.40;4.65;;;6.20;99.90;;;;;;5017737;28;20740;-84
2022/01/18 11:15:41;;;;;;;14.65;4.65;;;6.20;99.90;;;;;;5019725;28;20396;-84
2022/01/18 11:18:16;;;;;;;13.93;4.25;;;6.30;99.90;;;;;;5021446;28;20976;-84
2022/01/18 11:20:47;;;;;;;11.32;4.13;;;6.40;99.90;;;;;;5024383;28;20889;-83
2022/01/18 11:23:14;;;;;;;9.43;3.50;;;6.70;99.90;;;;;;5023749;28;20394;-83
2022/01/18 11:25:40;;;;;;;14.38;4.40;;;6.80;99.90;;;;;;5019813;28;20392;-84
2022/01/18 11:28:09;;;;;;;16.05;4.43;;;6.70;99.90;;;;;;5019519;28;20476;-83
2022/01/18 11:30:42;;;;;;;14.32;3.80;;;6.70;99.90;;;;;;5020041;28;20446;-84
2022/01/18 11:33:11;;;;;;;13.70;3.97;;;7.10;99.90;;;;;;5021457;28;20486;-84
2022/01/18 11:35:51;;;;;;;12.00;3.33;;;7.00;99.90;;;;;;5022314;28;20951;-84
2022/01/18 11:38:25;;;;;;;13.63;3.63;;;7.00;99.90;;;;;;5021818;28;20450;-84
2022/01/18 11:40:57;;;;;;;14.93;4.63;;;7.10;99.90;;;;;;5022918;28;20385;-84
2022/01/18 11:43:38;;;;;;;13.13;4.60;;;7.00;99.90;;;;;;5021777;28;20418;-84
2022/01/18 11:46:36;;;;;;;14.48;7.80;;;7.00;99.90;;;;;;5016957;28;20482;-84
2022/01/18 11:49:21;;;;;;;17.08;7.50;;;7.10;99.90;;;;;;5014325;28;20451;-84
2022/01/18 11:51:59;;;;;;;14.02;6.20;;;7.20;99.90;;;;;;5018969;28;20407;-83
2022/01/18 11:54:37;;;;;;;18.95;6.88;;;7.20;99.90;;;;;;5016731;28;20878;-83
2022/01/18 11:57:24;;;;;;;16.97;5.70;;;7.30;99.90;;;;;;5016120;28;20596;-83
2022/01/18 11:59:51;;;;;;;13.95;5.82;;;7.20;99.90;;;;;;5021621;28;20386;-83
2022/01/18 12:02:30;;;;;;;15.93;4.90;;;7.50;99.90;;;;;;5021155;28;20886;-83
2022/01/18 12:05:07;;;;;;;11.63;4.63;;;7.30;99.90;;;;;;5024741;28;20924;-82
2022/01/18 12:07:39;;;;;;;12.82;5.10;;;7.10;99.90;;;;;;5019026;28;20408;-83
2022/01/18 12:10:08;;;;;;;12.85;5.28;;;7.10;99.90;;;;;;5017062;28;20444;-83
2022/01/18 12:12:40;;;;;;;13.70;5.10;;;7.20;99.90;;;;;;5019971;28;20405;-84
2022/01/18 12:15:24;;;;;;;12.75;5.00;;;7.20;99.90;;;;;;5018698;28;20428;-83
2022/01/18 12:17:55;;;;;;;13.23;4.93;;;7.20;99.90;;;;;;5016261;28;20982;-83
2022/01/18 12:20:52;;;;;;;12.27;5.10;;;7.20;99.90;;;;;;5018404;28;20397;-83
2022/01/18 12:23:26;;;;;;;14.23;5.20;;;7.20;99.90;;;;;;5004753;28;20398;-83
2022/01/18 12:26:00;;;;;;;9.93;4.20;;;7.30;99.90;;;;;;5021117;28;20811;-84
2022/01/18 12:34:31;;;;;;;13.18;4.63;;;7.10;99.90;;;;;;5020726;28;20390;-84
2022/01/18 12:37:10;;;;;;;12.90;4.32;;;7.10;99.90;;;;;;5020168;28;20479;-84
2022/01/18 12:45:11;;;;;;;10.98;3.95;;;7.10;99.90;;;;;;5031029;28;20471;-84
2022/01/18 12:48:09;;;;;;;13.27;4.05;;;7.20;99.90;;;;;;5018404;28;20409;-84
2022/01/18 12:50:41;;;;;;;10.48;3.80;;;7.00;99.90;;;;;;5019628;28;20409;-85
2022/01/18 12:53:12;;;;;;;14.32;3.88;;;7.00;99.90;;;;;;5019567;28;20439;-84
2022/01/18 12:55:47;;;;;;;12.48;3.85;;;7.00;99.90;;;;;;5023352;28;20403;-85
2022/01/18 12:58:24;;;;;;;12.27;4.22;;;7.00;99.90;;;;;;5018512;28;20417;-85
2022/01/18 13:00:51;;;;;;;11.93;3.78;;;7.10;99.90;;;;;;5020508;28;20797;-84
2022/01/18 13:03:18;;;;;;;11.63;4.30;;;7.00;99.90;;;;;;5019251;28;20996;-85
2022/01/18 13:05:45;;;;;;;12.35;4.07;;;6.90;99.90;;;;;;5017545;28;20388;-84
2022/01/18 13:08:14;;;;;;;12.35;4.40;;;6.80;99.90;;;;;;5015863;28;20473;-84
2022/01/18 13:10:43;;;;;;;12.05;4.53;;;6.80;99.90;;;;;;5021208;28;20956;-83
2022/01/18 13:13:13;;;;;;;10.40;4.78;;;6.80;99.90;;;;;;5017745;28;20467;-85
2022/01/18 13:15:52;;;;;;;13.60;5.10;;;6.90;99.90;;;;;;5020250;28;20392;-85
2022/01/18 13:26:36;;;;;;;8.75;3.00;;;6.80;99.90;;;;;;5022236;28;20385;-84
2022/01/18 13:29:18;;;;;;;9.27;3.08;;;6.70;99.90;;;;;;5017474;28;20423;-83
2022/01/18 13:31:46;;;;;;;8.52;2.67;;;6.60;99.90;;;;;;5023006;28;20399;-84
2022/01/18 13:34:15;;;;;;;8.38;2.40;;;6.40;99.90;;;;;;5021960;28;20487;-82
2022/01/18 13:37:05;;;;;;;9.48;2.60;;;6.70;99.90;;;;;;5023885;28;20425;-84
2022/01/18 13:39:39;;;;;;;7.90;2.53;;;6.60;99.90;;;;;;5025748;28;20381;-84
2022/01/18 13:42:06;;;;;;;6.15;2.35;;;6.60;99.90;;;;;;5025655;28;20425;-83
2022/01/18 13:44:32;;;;;;;8.15;2.30;;;6.60;99.90;;;;;;5023904;28;20406;-83
2022/01/18 13:47:19;;;;;;;8.35;2.60;;;6.60;99.90;;;;;;5022170;28;20791;-83
2022/01/18 13:49:45;;;;;;;4.60;1.90;;;6.60;99.90;;;;;;5021779;28;20393;-84
2022/01/18 13:52:14;;;;;;;7.50;2.10;;;6.70;99.90;;;;;;5018296;28;20421;-84
2022/01/18 13:54:51;;;;;;;8.52;2.20;;;6.80;99.90;;;;;;5024537;28;20744;-84
2022/01/18 13:57:22;;;;;;;6.20;2.30;;;6.80;99.90;;;;;;5024101;28;20381;-84
2022/01/18 13:59:49;;;;;;;7.10;2.20;;;7.10;99.90;;;;;;5021571;28;20867;-83
2022/01/18 14:02:17;;;;;;;5.68;2.30;;;6.80;99.90;;;;;;5022982;28;20450;-85
2022/01/18 14:04:44;;;;;;;5.75;2.17;;;6.80;99.90;;;;;;5016154;28;20502;-84
2022/01/18 14:07:12;;;;;;;6.67;2.50;;;6.90;99.90;;;;;;5017735;28;20393;-84
2022/01/18 14:09:38;;;;;;;6.80;2.85;;;6.90;99.90;;;;;;5020619;28;20486;-84
2022/01/18 14:12:04;;;;;;;9.93;3.67;;;7.20;99.90;;;;;;5023864;28;20435;-83
2022/01/18 14:14:34;;;;;;;7.85;2.75;;;6.90;99.90;;;;;;5021685;28;20429;-84
2022/01/18 14:17:00;;;;;;;7.23;3.10;;;7.10;99.90;;;;;;5025195;28;20967;-83
2022/01/18 14:19:27;;;;;;;7.68;3.28;;;7.00;99.90;;;;;;5022963;28;20423;-84
2022/01/18 14:21:55;;;;;;;7.60;2.72;;;7.10;99.90;;;;;;5024075;28;20733;-84
2022/01/18 14:24:33;;;;;;;9.88;3.00;;;7.00;99.90;;;;;;5022392;28;20408;-84
2022/01/18 14:27:03;;;;;;;7.00;3.00;;;7.00;99.90;;;;;;5021992;28;20425;-83